Time;durP1;ratioP1;P1;durP2;ratioP2;P2;SDS_P1;SDS_P2;PMS_P1;PMS_P2;Temp;Humidity;BMP_temperature;BMP_pressure;BME280_temperature;BME280_humidity;BME280_pressure;Samples;Min_cycle;Max_cycle;Signal;HPM_P1;HPM_P2
2023/07/23 00:00:06;;;;;;;20.25;7.45;;;;;;;23.67;74.91;99914.94;10367990;28;20125;-70
2023/07/23 00:05:07;;;;;;;24.27;7.07;;;;;;;23.79;74.71;99932.94;10367933;28;20106;-70
2023/07/23 00:10:11;;;;;;;19.55;6.65;;;;;;;23.99;74.48;99976.41;10367534;28;20034;-70
2023/07/23 00:15:12;;;;;;;32.28;7.15;;;;;;;24.00;75.62;99988.09;10367213;28;20121;-69
2023/07/23 00:20:13;;;;;;;15.93;7.03;;;;;;;23.88;75.40;99974.75;10367966;28;20507;-69
2023/07/23 00:25:14;;;;;;;16.83;6.55;;;;;;;23.82;75.41;99964.94;10366573;28;20063;-69
2023/07/23 00:30:15;;;;;;;18.30;6.63;;;;;;;23.80;76.26;99957.06;10363992;28;20128;-69
2023/07/23 00:35:16;;;;;;;15.43;6.18;;;;;;;23.99;75.78;100006.25;10348299;28;20572;-69
2023/07/23 00:40:17;;;;;;;17.05;6.95;;;;;;;23.14;76.10;99865.34;10366129;28;20038;-69
2023/07/23 00:45:19;;;;;;;12.82;6.45;;;;;;;23.98;76.78;99988.34;10366825;28;20057;-69
2023/07/23 00:50:20;;;;;;;32.60;6.78;;;;;;;24.03;76.68;99996.50;10366345;28;20085;-69
2023/07/23 00:55:21;;;;;;;39.58;7.55;;;;;;;23.98;76.88;99991.03;10365201;28;20076;-69
2023/07/23 01:00:21;;;;;;;15.38;6.95;;;;;;;23.78;77.19;99977.38;10366521;28;20042;-69
2023/07/23 01:05:23;;;;;;;54.22;8.80;;;;;;;23.75;77.13;99992.28;10365399;28;20056;-69
2023/07/23 01:10:24;;;;;;;24.98;8.07;;;;;;;23.69;78.07;100005.03;10366543;28;20447;-69
2023/07/23 01:15:27;;;;;;;56.92;10.05;;;;;;;23.32;78.33;99958.13;10365466;28;20077;-69
2023/07/23 01:20:29;;;;;;;29.40;7.40;;;;;;;23.52;77.67;99988.09;10366640;28;20037;-69
2023/07/23 01:25:29;;;;;;;13.32;6.30;;;;;;;23.26;77.63;99951.06;10372120;28;20098;-69
2023/07/23 01:30:30;;;;;;;52.83;8.25;;;;;;;23.12;77.70;99939.84;10372055;28;20038;-69
2023/07/23 01:35:31;;;;;;;19.23;6.70;;;;;;;23.54;77.87;100010.31;10371946;28;20041;-69
2023/07/23 01:40:32;;;;;;;69.72;9.27;;;;;;;22.94;78.29;99944.59;10375529;28;20041;-69
2023/07/23 01:45:32;;;;;;;24.73;7.53;;;;;;;23.07;78.61;99986.69;10394326;28;20065;-69
2023/07/23 01:50:33;;;;;;;40.03;8.55;;;;;;;23.26;79.26;100027.75;10377337;28;20136;-69
2023/07/23 01:55:34;;;;;;;89.97;10.63;;;;;;;23.40;79.87;100033.56;10375334;28;20446;-69
2023/07/23 02:00:35;;;;;;;22.75;8.23;;;;;;;23.34;79.47;100035.41;10372885;28;20038;-69
2023/07/23 02:05:37;;;;;;;20.30;7.93;;;;;;;23.37;80.12;100036.78;10379606;28;20196;-69
2023/07/23 02:10:38;;;;;;;23.05;7.88;;;;;;;23.26;79.99;100006.06;10386448;28;20539;-69
2023/07/23 02:15:39;;;;;;;41.30;8.13;;;;;;;23.46;80.21;100027.09;10391921;28;20080;-69
2023/07/23 02:20:42;;;;;;;22.10;6.93;;;;;;;23.52;81.50;100036.06;10371244;28;20087;-69
2023/07/23 02:25:43;;;;;;;41.42;8.43;;;;;;;23.47;80.73;100034.13;10370713;28;20042;-69
2023/07/23 02:30:44;;;;;;;33.92;7.15;;;;;;;23.44;80.22;100002.13;10370540;28;20408;-69
2023/07/23 02:35:45;;;;;;;41.00;7.50;;;;;;;23.91;79.94;100048.25;10368743;28;20046;-69
2023/07/23 02:40:45;;;;;;;85.80;10.45;;;;;;;23.92;79.57;100024.66;10370463;28;20041;-69
2023/07/23 02:45:47;;;;;;;24.20;7.35;;;;;;;24.14;79.60;100040.75;10369926;28;20072;-68
2023/07/23 02:50:47;;;;;;;19.02;7.53;;;;;;;24.23;79.26;100035.63;10380814;28;20049;-68
2023/07/23 02:55:48;;;;;;;13.27;7.53;;;;;;;24.33;79.17;100041.94;10378567;28;20393;-69
2023/07/23 03:00:49;;;;;;;49.60;7.43;;;;;;;24.49;79.46;100040.09;10320857;28;20087;-69
2023/07/23 03:05:51;;;;;;;42.85;7.93;;;;;;;24.49;79.94;100018.38;10378172;28;20258;-69
2023/07/23 03:10:52;;;;;;;22.52;7.47;;;;;;;24.68;78.47;100021.41;10369968;28;20060;-68
2023/07/23 03:15:53;;;;;;;15.68;6.35;;;;;;;24.70;76.84;99974.97;10368955;28;20034;-68
2023/07/23 03:20:53;;;;;;;24.10;7.45;;;;;;;25.76;75.15;100037.69;10350938;28;20046;-69
2023/07/23 03:25:54;;;;;;;14.95;6.32;;;;;;;27.32;70.21;100039.06;10368638;28;20042;-69
2023/07/23 03:30:55;;;;;;;16.20;6.10;;;;;;;28.64;65.19;100033.19;10369045;28;20407;-69
2023/07/23 03:35:55;;;;;;;13.93;5.50;;;;;;;28.37;64.50;99987.38;10368685;28;20037;-69
2023/07/23 03:40:56;;;;;;;14.70;6.05;;;;;;;29.14;63.26;100030.78;10369002;28;20593;-69
2023/07/23 03:45:57;;;;;;;15.02;5.93;;;;;;;28.75;63.08;99990.09;10368374;28;20054;-69
2023/07/23 03:50:58;;;;;;;11.25;5.68;;;;;;;29.81;60.51;100035.88;10367907;28;20559;-70
2023/07/23 03:55:59;;;;;;;18.27;5.93;;;;;;;30.96;57.48;100033.97;10369338;28;20087;-69
2023/07/23 04:01:00;;;;;;;35.05;6.53;;;;;;;32.07;54.24;100018.44;10382420;28;20477;-70
2023/07/23 04:06:00;;;;;;;12.25;6.05;;;;;;;32.58;51.95;100016.91;10447124;28;20042;-70
2023/07/23 04:11:01;;;;;;;23.98;13.60;;;;;;;33.03;50.79;100030.34;10367874;28;20046;-69
2023/07/23 04:16:08;;;;;;;23.92;13.63;;;;;;;33.16;48.61;100037.56;10366996;28;20520;-69
2023/07/23 04:21:09;;;;;;;19.08;6.95;;;;;;;32.00;51.12;99979.63;10366428;28;20509;-69
2023/07/23 04:26:10;;;;;;;49.00;7.30;;;;;;;32.97;49.91;100031.59;10366664;28;20136;-69
2023/07/23 04:31:11;;;;;;;10.63;5.43;;;;;;;33.33;49.00;100025.72;10365516;28;20044;-69
2023/07/23 04:36:13;;;;;;;10.57;5.40;;;;;;;33.74;47.32;100037.25;10434937;28;20609;-70
2023/07/23 04:41:14;;;;;;;18.00;5.82;;;;;;;34.02;47.79;100021.09;10580280;28;20408;-69
2023/07/23 04:46:15;;;;;;;37.15;7.65;;;;;;;34.35;46.38;100015.72;10579385;28;20039;-69
2023/07/23 04:51:16;;;;;;;13.80;4.70;;;;;;;34.09;45.57;99971.78;10579193;28;20096;-70
2023/07/23 04:56:17;;;;;;;22.35;5.00;;;;;;;34.44;45.60;100029.44;10579340;28;20058;-70
2023/07/23 05:01:17;;;;;;;14.63;5.13;;;;;;;33.31;45.54;99952.84;10420243;28;20046;-70
2023/07/23 05:06:18;;;;;;;11.40;4.88;;;;;;;33.32;45.94;100004.81;10404845;28;20123;-69
2023/07/23 05:11:19;;;;;;;13.20;4.85;;;;;;;33.11;45.96;99990.16;10510370;28;20566;-69
2023/07/23 05:16:19;;;;;;;8.55;4.45;;;;;;;33.22;46.42;100004.38;10406259;28;20068;-69
2023/07/23 05:21:20;;;;;;;7.55;4.70;;;;;;;32.93;45.91;99981.09;10347345;28;20042;-69
2023/07/23 05:26:21;;;;;;;11.52;4.43;;;;;;;32.92;45.76;99985.78;10364965;28;20057;-69
2023/07/23 05:31:21;;;;;;;10.02;4.43;;;;;;;32.93;44.55;99992.09;10377896;28;20039;-69
2023/07/23 05:36:22;;;;;;;15.95;4.75;;;;;;;32.93;44.69;99990.16;10368826;28;20037;-69
2023/07/23 05:41:23;;;;;;;10.82;3.92;;;;;;;33.11;43.11;99990.16;10361965;28;20050;-69
2023/07/23 05:46:24;;;;;;;11.23;4.32;;;;;;;32.82;42.97;99990.81;10363236;28;20042;-69
2023/07/23 05:51:25;;;;;;;9.48;4.32;;;;;;;32.68;43.08;99980.81;10361486;28;20041;-69
2023/07/23 05:56:26;;;;;;;10.85;4.68;;;;;;;33.02;42.35;99970.09;10361863;28;20382;-70
2023/07/23 06:01:27;;;;;;;11.53;4.40;;;;;;;33.13;42.30;99961.16;10360039;28;20503;-70
2023/07/23 06:06:28;;;;;;;13.20;4.85;;;;;;;33.01;43.48;99908.78;10355045;28;20182;-69
2023/07/23 06:11:30;;;;;;;9.32;4.18;;;;;;;33.69;42.26;99952.06;10345365;28;20046;-69
2023/07/23 06:16:31;;;;;;;14.07;4.30;;;;;;;33.96;41.15;99951.56;10365982;28;20041;-69
2023/07/23 06:21:31;;;;;;;11.35;4.40;;;;;;;34.33;41.13;99960.06;10367199;28;20038;-70
2023/07/23 06:26:32;;;;;;;11.05;4.53;;;;;;;33.77;41.18;99829.97;10356642;28;20034;-69
2023/07/23 06:31:33;;;;;;;8.55;4.43;;;;;;;34.33;41.40;99946.28;10367793;28;20070;-70
2023/07/23 06:36:34;;;;;;;10.43;4.55;;;;;;;33.76;42.11;99914.56;10365102;28;20459;-70
2023/07/23 06:41:35;;;;;;;9.30;4.47;;;;;;;33.63;41.63;99944.00;10369686;28;20107;-70
2023/07/23 06:46:36;;;;;;;9.95;5.03;;;;;;;33.72;42.42;99926.63;10366223;28;20044;-69
2023/07/23 06:51:36;;;;;;;9.48;4.43;;;;;;;33.89;41.03;99933.94;10366148;28;20517;-70
2023/07/23 06:56:37;;;;;;;57.13;6.07;;;;;;;34.47;41.23;99915.69;10371629;28;20423;-69
2023/07/23 07:01:38;;;;;;;16.48;4.72;;;;;;;34.47;39.93;99888.09;10366120;28;20061;-70
2023/07/23 07:06:39;;;;;;;26.55;5.28;;;;;;;34.48;39.65;99896.03;10377596;28;20046;-69
2023/07/23 07:11:39;;;;;;;14.68;4.40;;;;;;;34.99;40.32;99904.91;10366794;28;20042;-70
2023/07/23 07:16:40;;;;;;;6.45;4.13;;;;;;;35.11;39.36;99871.03;10371537;28;20042;-69
2023/07/23 07:25:21;;;;;;;24.80;4.85;;;;;;;35.17;38.40;99827.44;10519023;27;20488;-68
2023/07/23 07:30:22;;;;;;;10.55;4.25;;;;;;;35.68;37.68;99891.41;10482608;28;20488;-70
2023/07/23 07:35:23;;;;;;;8.73;4.70;;;;;;;35.94;37.64;99887.44;10477510;28;20043;-69
2023/07/23 07:40:23;;;;;;;5.70;4.13;;;;;;;35.95;37.13;99872.44;10482451;28;20040;-69
2023/07/23 07:45:24;;;;;;;9.27;4.72;;;;;;;36.05;36.96;99864.50;10478428;28;20036;-71
2023/07/23 07:50:25;;;;;;;9.90;4.65;;;;;;;36.08;36.52;99849.97;10475063;28;20033;-70
2023/07/23 07:55:26;;;;;;;7.50;4.70;;;;;;;35.75;36.37;99800.44;10465254;28;20061;-69
2023/07/23 08:00:27;;;;;;;10.57;4.03;;;;;;;35.53;37.04;99839.59;10477784;28;20061;-72
2023/07/23 08:05:28;;;;;;;8.23;3.90;;;;;;;35.01;36.99;99826.50;10469839;28;20052;-71
2023/07/23 08:10:29;;;;;;;11.05;4.20;;;;;;;34.66;37.85;99854.50;10473408;28;20041;-71
2023/07/23 08:15:31;;;;;;;30.73;4.70;;;;;;;34.22;39.75;99808.03;10475874;28;20041;-72
2023/07/23 08:20:34;;;;;;;10.75;4.55;;;;;;;33.99;41.61;99829.66;10475662;28;20244;-71
2023/07/23 08:25:37;;;;;;;13.20;4.40;;;;;;;33.29;43.25;99774.25;10471553;28;20525;-71
2023/07/23 08:30:38;;;;;;;13.40;4.72;;;;;;;33.12;46.60;99793.66;10472246;28;20037;-70
2023/07/23 08:35:39;;;;;;;29.80;5.88;;;;;;;32.80;52.03;99814.31;10450200;28;20412;-71
2023/07/23 08:40:44;;;;;;;17.92;5.30;;;;;;;32.45;56.40;99828.97;10439014;28;20064;-71
2023/07/23 08:46:15;;;;;;;12.55;4.82;;;;;;;32.39;58.12;99802.75;10464395;28;20064;-70
2023/07/23 08:51:16;;;;;;;7.27;4.20;;;;;;;32.24;51.01;99732.63;10458596;28;20132;-70
2023/07/23 08:56:18;;;;;;;8.35;4.80;;;;;;;33.03;48.88;99796.44;10455939;28;20065;-70
2023/07/23 09:01:19;;;;;;;16.58;5.10;;;;;;;33.42;48.03;99781.47;10458791;28;20080;-70
2023/07/23 09:06:20;;;;;;;9.18;3.83;;;;;;;33.51;46.64;99799.91;10458435;28;20064;-70
2023/07/23 09:11:20;;;;;;;20.70;4.95;;;;;;;33.51;46.81;99795.19;10458312;28;20139;-70
2023/07/23 09:16:24;;;;;;;13.27;4.60;;;;;;;33.57;45.88;99782.03;10458181;28;20036;-70
2023/07/23 09:21:26;;;;;;;9.00;4.40;;;;;;;33.91;43.14;99804.94;10455188;28;20517;-69
2023/07/23 09:26:28;;;;;;;17.00;5.03;;;;;;;34.34;43.18;99795.44;10457342;28;20094;-69
2023/07/23 09:31:31;;;;;;;8.00;5.13;;;;;;;34.51;40.68;99695.97;10437756;28;20068;-70
2023/07/23 09:36:32;;;;;;;16.88;5.50;;;;;;;35.47;39.58;99763.66;10419600;28;20306;-70
2023/07/23 09:41:36;;;;;;;10.05;4.72;;;;;;;35.73;38.78;99754.97;10442244;28;20056;-71
2023/07/23 09:46:45;;;;;;;11.80;4.65;;;;;;;36.05;37.58;99747.59;10457812;28;20049;-70
2023/07/23 09:51:52;;;;;;;12.13;4.28;;;;;;;36.32;35.82;99748.72;10434177;28;20036;-70
2023/07/23 09:56:53;;;;;;;9.75;4.30;;;;;;;36.44;35.81;99750.56;10436628;28;20037;-70
2023/07/23 10:01:56;;;;;;;15.98;4.13;;;;;;;36.47;35.78;99731.31;10436531;28;20052;-71
2023/07/23 10:06:57;;;;;;;11.02;5.00;;;;;;;35.99;35.49;99699.19;10436059;28;20037;-72
2023/07/23 10:11:58;;;;;;;7.67;5.00;;;;;;;35.68;35.34;99675.88;10434366;28;20044;-70
2023/07/23 10:17:00;;;;;;;12.93;5.60;;;;;;;36.06;34.80;99733.41;10450215;28;20493;-68
2023/07/23 10:22:01;;;;;;;13.07;5.43;;;;;;;36.17;34.51;99721.81;10439488;28;20053;-70
2023/07/23 10:27:10;;;;;;;11.65;5.72;;;;;;;36.81;33.31;99739.25;10443771;28;20082;-69
2023/07/23 10:32:26;;;;;;;14.40;6.07;;;;;;;36.62;32.26;99729.72;10449080;28;20436;-70
2023/07/23 10:37:27;;;;;;;18.10;5.65;;;;;;;36.11;34.58;99719.34;10444430;28;20059;-70
2023/07/23 10:42:28;;;;;;;22.73;9.02;;;;;;;35.65;34.98;99665.53;10444327;28;20078;-70
2023/07/23 10:47:33;;;;;;;14.68;5.93;;;;;;;35.88;34.04;99732.09;10431058;28;20422;-69
2023/07/23 10:52:34;;;;;;;25.45;6.05;;;;;;;35.96;33.80;99719.25;10439845;28;20555;-70
2023/07/23 10:57:41;;;;;;;21.13;6.10;;;;;;;35.97;33.70;99712.59;10444229;28;20040;-70
2023/07/23 11:02:46;;;;;;;9.65;5.43;;;;;;;35.98;34.22;99701.16;10426410;28;20049;-70
2023/07/23 11:08:17;;;;;;;15.63;5.25;;;;;;;36.01;33.79;99706.00;10423421;28;20045;-75
2023/07/23 11:13:20;;;;;;;11.37;5.53;;;;;;;35.84;34.20;99685.03;10453423;28;20037;-75
2023/07/23 11:18:22;;;;;;;13.18;5.30;;;;;;;35.93;35.88;99695.91;10439130;28;20045;-76
2023/07/23 11:23:25;;;;;;;12.55;5.22;;;;;;;36.46;33.65;99681.84;10412929;28;20148;-77
2023/07/23 11:28:27;;;;;;;12.85;5.60;;;;;;;36.29;33.97;99656.19;10412981;28;20049;-75
2023/07/23 11:33:30;;;;;;;16.77;5.30;;;;;;;36.16;35.30;99651.91;10412416;28;20112;-75
2023/07/23 11:38:32;;;;;;;13.40;5.38;;;;;;;36.16;34.47;99660.19;10424922;28;20048;-75
2023/07/23 11:43:34;;;;;;;20.63;6.50;;;;;;;36.23;35.61;99663.16;10414560;28;20420;-76
2023/07/23 11:48:34;;;;;;;;;;;;;;;36.80;35.00;99666.50;10415930;28;20045;-75
2023/07/23 11:53:37;;;;;;;10.40;5.23;;;;;;;37.09;33.48;99673.47;10412140;28;19916;-75
2023/07/23 11:58:38;;;;;;;11.13;5.05;;;;;;;36.97;32.62;99646.69;10412528;28;20124;-76
2023/07/23 12:03:42;;;;;;;15.27;5.50;;;;;;;36.75;33.70;99659.25;10412328;28;20477;-76
2023/07/23 12:08:46;;;;;;;11.48;4.93;;;;;;;36.40;32.73;99622.44;10414156;28;20052;-83
2023/07/23 12:13:55;;;;;;;19.05;4.68;;;;;;;36.26;35.22;99645.06;10417975;28;20038;-77
2023/07/23 12:19:01;;;;;;;11.52;4.13;;;;;;;35.59;36.66;99650.38;10420428;28;20077;-76
2023/07/23 12:24:20;;;;;;;11.25;4.28;;;;;;;35.19;37.93;99654.78;10418671;28;20174;-77
2023/07/23 12:29:22;;;;;;;17.15;4.90;;;;;;;34.54;38.23;99613.38;10416746;28;20519;-75
2023/07/23 12:34:23;;;;;;;31.73;5.22;;;;;;;34.52;39.36;99654.28;10447083;28;20063;-77
2023/07/23 12:39:24;;;;;;;20.25;4.47;;;;;;;34.35;39.64;99646.22;10432114;28;20095;-76
2023/07/23 12:44:25;;;;;;;20.58;5.03;;;;;;;33.93;42.39;99576.72;10438344;28;20071;-75
2023/07/23 12:49:26;;;;;;;11.73;4.27;;;;;;;34.11;43.80;99608.44;10431528;28;20513;-77
2023/07/23 12:54:27;;;;;;;12.85;4.82;;;;;;;33.82;45.23;99568.88;10424874;28;20052;-76
2023/07/23 12:59:28;;;;;;;12.68;4.50;;;;;;;34.22;44.05;99636.34;10432798;28;20041;-75
2023/07/23 13:04:29;;;;;;;9.90;4.80;;;;;;;34.05;42.91;99580.28;10435477;28;20136;-76
2023/07/23 13:09:30;;;;;;;19.67;5.93;;;;;;;34.40;42.06;99637.72;10438829;28;20182;-76
2023/07/23 13:14:31;;;;;;;12.63;5.68;;;;;;;33.84;42.15;99576.81;10434437;28;20045;-77
2023/07/23 13:19:31;;;;;;;20.55;6.80;;;;;;;33.92;42.31;99619.97;10431938;28;20060;-75
2023/07/23 13:24:32;;;;;;;14.30;5.68;;;;;;;33.31;42.17;99545.44;10445380;28;20061;-81
2023/07/23 13:29:33;;;;;;;17.48;5.95;;;;;;;33.69;42.13;99629.81;10431206;28;20527;-75
2023/07/23 13:34:34;;;;;;;11.95;5.68;;;;;;;33.69;41.60;99603.06;10433455;28;20048;-75
2023/07/23 13:39:34;;;;;;;19.05;7.22;;;;;;;34.20;41.36;99624.88;10448000;28;20045;-75
2023/07/23 13:44:35;;;;;;;16.13;7.97;;;;;;;33.82;40.92;99555.09;10416827;28;20053;-76
2023/07/23 13:49:36;;;;;;;15.00;6.10;;;;;;;33.93;40.71;99605.06;10416447;28;20436;-75
2023/07/23 13:54:37;;;;;;;12.43;4.47;;;;;;;33.86;41.19;99629.59;10415515;28;20049;-75
2023/07/23 13:59:38;;;;;;;18.95;5.72;;;;;;;33.81;41.63;99638.91;10415502;28;20044;-74
2023/07/23 14:04:39;;;;;;;19.58;6.03;;;;;;;33.68;41.17;99628.97;10416253;28;20041;-75
2023/07/23 14:09:40;;;;;;;13.80;5.15;;;;;;;33.33;41.27;99587.22;10415440;28;20555;-75
2023/07/23 14:14:40;;;;;;;28.08;6.50;;;;;;;33.22;41.63;99591.53;10415287;28;20091;-75
2023/07/23 14:19:41;;;;;;;15.70;6.43;;;;;;;32.81;42.37;99566.41;10414702;28;20045;-75
2023/07/23 14:24:42;;;;;;;16.00;6.28;;;;;;;32.94;42.54;99608.56;10415460;28;20065;-75
2023/07/23 14:29:43;;;;;;;16.23;6.60;;;;;;;32.76;42.48;99602.38;10415100;28;20552;-75
2023/07/23 14:34:44;;;;;;;22.63;8.15;;;;;;;32.62;42.50;99601.84;10414132;28;20033;-74
2023/07/23 14:39:44;;;;;;;19.05;6.90;;;;;;;32.59;43.33;99638.25;10413167;28;20049;-75
2023/07/23 14:44:45;;;;;;;13.70;7.35;;;;;;;32.50;43.59;99674.03;10414696;28;20183;-75
2023/07/23 14:49:46;;;;;;;26.90;6.18;;;;;;;31.68;46.68;99734.50;10414258;28;20051;-75
2023/07/23 14:54:47;;;;;;;32.83;6.10;;;;;;;29.68;50.67;99607.75;10413378;28;20092;-74
2023/07/23 14:59:47;;;;;;;23.95;6.47;;;;;;;28.61;58.69;99709.38;10413864;28;20037;-71
2023/07/23 15:04:48;;;;;;;27.60;7.90;;;;;;;26.83;67.65;99745.63;10413146;28;20198;-80
2023/07/23 15:09:49;;;;;;;13.25;4.50;;;;;;;25.02;75.00;99765.47;10425698;28;20136;-77
2023/07/23 15:14:50;;;;;;;7.07;4.35;;;;;;;24.68;78.12;99825.03;10424976;28;20119;-73
2023/07/23 15:19:51;;;;;;;8.82;5.05;;;;;;;24.52;81.64;99818.81;10430510;28;20045;-75
2023/07/23 15:24:52;;;;;;;9.60;5.07;;;;;;;24.50;83.91;99857.13;10414523;28;20061;-75
2023/07/23 15:29:55;;;;;;;10.27;6.72;;;;;;;24.38;87.59;99854.63;10437695;28;20048;-76
2023/07/23 15:34:56;;;;;;;23.77;6.80;;;;;;;24.34;89.41;99853.53;10425206;28;20466;-76
2023/07/23 15:39:57;;;;;;;19.48;10.77;;;;;;;24.08;92.13;99768.59;10436308;28;20041;-75
2023/07/23 15:44:58;;;;;;;17.40;7.57;;;;;;;24.62;93.03;99832.41;10460037;28;20041;-75
2023/07/23 15:49:59;;;;;;;15.75;7.47;;;;;;;24.57;94.42;99797.91;10460698;28;20067;-76
2023/07/23 15:54:59;;;;;;;15.95;7.80;;;;;;;24.85;94.81;99843.75;10457512;28;20052;-76
2023/07/23 16:00:00;;;;;;;13.00;7.97;;;;;;;24.71;94.55;99830.75;10450337;28;20404;-82
2023/07/23 16:05:01;;;;;;;12.65;7.25;;;;;;;24.76;94.59;99824.47;10439373;28;20611;-76
2023/07/23 16:10:02;;;;;;;12.55;7.13;;;;;;;24.86;95.19;99838.06;10443142;28;20049;-76
2023/07/23 16:15:03;;;;;;;12.27;6.38;;;;;;;24.88;94.83;99840.50;10432678;28;20036;-76
2023/07/23 16:20:05;;;;;;;9.57;6.45;;;;;;;24.88;95.32;99846.72;10461155;28;20080;-76
2023/07/23 16:25:06;;;;;;;13.02;6.78;;;;;;;24.73;95.28;99823.13;10459999;28;20075;-76
2023/07/23 16:30:08;;;;;;;10.80;6.38;;;;;;;24.80;95.58;99841.88;10457799;28;20413;-76
2023/07/23 16:35:09;;;;;;;9.70;7.00;;;;;;;24.78;95.87;99828.56;10454108;28;20155;-76
2023/07/23 16:40:10;;;;;;;14.18;7.50;;;;;;;24.91;95.67;99839.94;10418516;28;20103;-77
2023/07/23 16:45:14;;;;;;;10.63;7.45;;;;;;;24.41;95.95;99766.41;10439663;28;20515;-77
2023/07/23 16:50:14;;;;;;;;;;;;;;;24.94;93.66;99821.19;10460554;28;20041;-76
2023/07/23 16:55:15;;;;;;;15.85;6.78;;;;;;;24.38;93.71;99754.19;10458768;28;20312;-76
2023/07/23 17:00:21;;;;;;;6.95;5.22;;;;;;;24.81;90.11;99824.47;10459270;28;20037;-75
2023/07/23 17:05:21;;;;;;;12.40;6.25;;;;;;;25.03;88.16;99827.66;10455157;28;20052;-76
2023/07/23 17:10:23;;;;;;;12.57;6.68;;;;;;;24.42;87.32;99719.19;10433303;28;20455;-73
2023/07/23 17:15:24;;;;;;;21.13;7.40;;;;;;;25.05;88.37;99808.38;10459008;28;20037;-76
2023/07/23 17:20:25;;;;;;;10.82;8.10;;;;;;;25.00;87.51;99779.31;10457583;28;20127;-77
2023/07/23 17:25:25;;;;;;;10.88;8.43;;;;;;;25.09;87.31;99776.84;10449410;28;20063;-74
2023/07/23 17:30:26;;;;;;;12.60;9.75;;;;;;;24.99;87.89;99777.69;10439087;28;20041;-73
2023/07/23 17:35:27;;;;;;;13.25;9.60;;;;;;;24.95;87.66;99752.19;10430702;28;20417;-78
2023/07/23 17:40:27;;;;;;;17.98;9.55;;;;;;;25.19;88.76;99773.31;10444154;28;20044;-75
2023/07/23 17:45:28;;;;;;;16.90;9.27;;;;;;;25.25;89.31;99783.06;10441221;28;20059;-77
2023/07/23 17:50:29;;;;;;;10.60;7.95;;;;;;;25.13;89.00;99769.81;10430495;28;20045;-76
2023/07/23 17:55:30;;;;;;;11.43;7.85;;;;;;;25.36;89.03;99792.78;10424567;28;20048;-77
2023/07/23 18:00:30;;;;;;;13.07;10.32;;;;;;;25.19;89.92;99787.72;10431305;28;20409;-75
2023/07/23 18:05:32;;;;;;;16.63;10.98;;;;;;;25.04;91.48;99787.75;10431672;28;20504;-76
2023/07/23 18:10:32;;;;;;;15.18;9.50;;;;;;;25.06;92.33;99799.13;10424439;28;20042;-76
2023/07/23 18:15:36;;;;;;;13.27;9.50;;;;;;;24.92;92.85;99793.50;10415008;28;20120;-75
2023/07/23 18:20:37;;;;;;;15.40;9.60;;;;;;;24.92;92.30;99807.06;10446679;28;20036;-76
2023/07/23 18:25:41;;;;;;;14.55;8.85;;;;;;;24.77;93.83;99802.50;10428534;28;20041;-74
2023/07/23 18:30:42;;;;;;;14.23;8.90;;;;;;;24.30;94.25;99727.59;10430261;28;20041;-76
2023/07/23 18:35:43;;;;;;;13.57;9.68;;;;;;;24.41;94.46;99747.41;10426692;28;20045;-75
2023/07/23 18:40:44;;;;;;;11.18;8.48;;;;;;;24.79;94.99;99803.00;10432420;28;20454;-75
2023/07/23 18:45:45;;;;;;;10.70;8.43;;;;;;;24.76;94.31;99810.91;10431864;28;20041;-74
2023/07/23 18:50:45;;;;;;;12.32;8.60;;;;;;;24.70;94.02;99812.00;10431411;28;20456;-74
2023/07/23 18:55:46;;;;;;;20.15;9.25;;;;;;;24.59;95.46;99793.03;10440447;28;20083;-74
2023/07/23 19:00:47;;;;;;;10.20;8.77;;;;;;;24.61;95.28;99817.16;10417761;28;20072;-74
2023/07/23 19:05:48;;;;;;;10.43;8.43;;;;;;;24.58;96.14;99802.22;10412444;28;20063;-74
2023/07/23 19:10:49;;;;;;;11.15;8.50;;;;;;;24.57;96.69;99810.66;10437171;28;20048;-74
2023/07/23 19:15:49;;;;;;;9.48;8.27;;;;;;;24.57;97.51;99807.94;10421482;28;20059;-74
2023/07/23 19:20:50;;;;;;;12.13;8.75;;;;;;;24.64;97.99;99803.03;10424064;28;20496;-74
2023/07/23 19:25:51;;;;;;;12.23;8.80;;;;;;;24.04;97.49;99718.66;10424390;28;20044;-74
2023/07/23 19:30:52;;;;;;;15.55;8.95;;;;;;;24.60;97.55;99813.66;10438215;28;20041;-74
2023/07/23 19:35:53;;;;;;;15.13;9.73;;;;;;;24.73;98.29;99816.88;10452896;28;20072;-74
2023/07/23 19:40:54;;;;;;;17.95;9.38;;;;;;;24.56;98.77;99790.00;10454607;28;20071;-74
2023/07/23 19:45:55;;;;;;;13.85;9.98;;;;;;;24.73;99.40;99820.41;10454136;28;20037;-74
2023/07/23 19:50:55;;;;;;;12.43;10.10;;;;;;;24.70;99.69;99833.72;10429395;28;20440;-74
2023/07/23 19:55:56;;;;;;;15.73;10.07;;;;;;;24.54;100.00;99822.88;10412510;28;20049;-74
2023/07/23 20:00:57;;;;;;;16.38;10.70;;;;;;;24.46;100.00;99831.56;10412420;28;20034;-74
2023/07/23 20:05:58;;;;;;;14.75;11.32;;;;;;;24.44;100.00;99819.34;10412150;28;20041;-75
2023/07/23 20:10:58;;;;;;;18.83;11.77;;;;;;;24.41;100.00;99831.56;10410710;28;20033;-75
2023/07/23 20:15:59;;;;;;;16.23;11.20;;;;;;;24.33;100.00;99815.81;10412248;28;20084;-74
2023/07/23 20:21:00;;;;;;;18.00;11.20;;;;;;;24.47;100.00;99848.66;10411507;28;20057;-74
2023/07/23 20:26:01;;;;;;;14.10;10.05;;;;;;;23.94;100.00;99772.94;10411436;28;20136;-75
2023/07/23 20:31:02;;;;;;;14.35;9.50;;;;;;;23.82;100.00;99764.25;10416454;28;20049;-74
2023/07/23 20:36:03;;;;;;;12.48;9.57;;;;;;;23.55;100.00;99716.44;10419496;28;20124;-75
2023/07/23 20:41:04;;;;;;;13.77;9.05;;;;;;;24.11;100.00;99778.91;10418908;28;20093;-74
2023/07/23 20:46:05;;;;;;;11.30;8.77;;;;;;;24.46;100.00;99818.00;10421307;28;20037;-75
2023/07/23 20:51:06;;;;;;;11.90;8.55;;;;;;;24.26;100.00;99786.25;10418882;28;20459;-73
2023/07/23 20:56:07;;;;;;;12.30;8.88;;;;;;;24.34;100.00;99801.16;10451668;28;20063;-75
2023/07/23 21:01:08;;;;;;;12.55;7.97;;;;;;;24.47;100.00;99835.94;10460089;28;20493;-75
2023/07/23 21:06:08;;;;;;;11.75;7.97;;;;;;;24.34;100.00;99801.94;10458753;28;20167;-74
2023/07/23 21:11:09;;;;;;;12.65;8.50;;;;;;;24.27;100.00;99822.31;10431723;28;20397;-74
2023/07/23 21:16:10;;;;;;;12.70;9.15;;;;;;;23.92;100.00;99780.50;10418620;28;20052;-75
2023/07/23 21:21:11;;;;;;;15.50;9.23;;;;;;;24.21;100.00;99812.56;10416899;28;20061;-74
2023/07/23 21:26:11;;;;;;;17.00;8.57;;;;;;;24.06;100.00;99808.75;10417425;28;20045;-74
2023/07/23 21:31:12;;;;;;;17.05;9.98;;;;;;;23.54;100.00;99727.53;10417273;28;20505;-74
2023/07/23 21:36:13;;;;;;;15.27;10.77;;;;;;;23.90;100.00;99799.78;10417077;28;20038;-73
2023/07/23 21:41:13;;;;;;;16.40;9.40;;;;;;;23.49;100.00;99738.41;10417023;28;20037;-73
2023/07/23 21:46:14;;;;;;;15.88;9.88;;;;;;;23.81;100.00;99805.97;10416693;28;20107;-74
2023/07/23 21:51:15;;;;;;;15.48;9.98;;;;;;;23.67;100.00;99795.63;10416910;28;20056;-74
2023/07/23 21:56:16;;;;;;;15.13;11.00;;;;;;;23.64;100.00;99793.47;10416202;28;20071;-74
2023/07/23 22:01:16;;;;;;;13.65;10.57;;;;;;;23.87;100.00;99832.88;10415686;28;20050;-74
2023/07/23 22:06:17;;;;;;;14.75;9.75;;;;;;;23.82;100.00;99818.47;10415914;28;20041;-74
2023/07/23 22:11:18;;;;;;;14.88;10.77;;;;;;;23.89;100.00;99824.44;10415094;28;20045;-74
2023/07/23 22:16:18;;;;;;;13.80;10.23;;;;;;;23.94;100.00;99827.19;10415607;28;20033;-74
2023/07/23 22:21:19;;;;;;;13.82;10.35;;;;;;;23.75;100.00;99790.78;10430753;28;20057;-74
2023/07/23 22:26:20;;;;;;;15.55;10.20;;;;;;;23.90;100.00;99815.22;10414435;28;20105;-73
2023/07/23 22:31:21;;;;;;;14.40;10.32;;;;;;;23.72;100.00;99791.31;10415090;28;20080;-73
2023/07/23 22:36:22;;;;;;;13.15;10.38;;;;;;;23.75;100.00;99797.03;10414698;28;20108;-74
2023/07/23 22:41:23;;;;;;;17.40;11.13;;;;;;;23.69;100.00;99758.25;10414368;28;20034;-74
2023/07/23 22:46:24;;;;;;;15.73;10.95;;;;;;;23.65;100.00;99754.41;10414498;28;20041;-74
2023/07/23 22:51:25;;;;;;;14.25;9.95;;;;;;;23.65;100.00;99753.59;10428603;28;20041;-73
2023/07/23 22:56:26;;;;;;;26.08;11.45;;;;;;;23.71;100.00;99760.69;10413749;28;20041;-73
2023/07/23 23:01:26;;;;;;;17.33;11.30;;;;;;;23.75;100.00;99775.31;10414273;28;20075;-73